Time;durP1;ratioP1;P1;durP2;ratioP2;P2;SDS_P1;SDS_P2;PMS_P1;PMS_P2;Temp;Humidity;BMP_temperature;BMP_pressure;BME280_temperature;BME280_humidity;BME280_pressure;Samples;Min_cycle;Max_cycle;Signal;HPM_P1;HPM_P2
2023/04/19 00:02:24;;;;;;;20.53;12.37;;;9.20;70.20;;;;;;5054581;28;46370;-65
2023/04/19 00:04:50;;;;;;;17.53;11.60;;;9.20;70.40;;;;;;5050610;28;46448;-64
2023/04/19 00:07:17;;;;;;;20.47;13.10;;;9.20;70.20;;;;;;5049444;28;46390;-64
2023/04/19 00:09:43;;;;;;;18.10;11.53;;;9.20;70.40;;;;;;5054044;28;46440;-64
2023/04/19 00:12:08;;;;;;;21.10;13.83;;;9.20;70.30;;;;;;5053686;28;45788;-65
2023/04/19 00:14:34;;;;;;;19.03;12.80;;;9.10;70.50;;;;;;5050572;28;46385;-65
2023/04/19 00:17:00;;;;;;;21.67;13.03;;;9.10;70.70;;;;;;5051864;28;46472;-64
2023/04/19 00:19:26;;;;;;;19.80;13.67;;;9.10;70.80;;;;;;5051283;28;46334;-65
2023/04/19 00:21:51;;;;;;;19.17;12.77;;;9.10;70.90;;;;;;5051088;28;45918;-65
2023/04/19 00:24:17;;;;;;;21.30;14.43;;;9.10;70.90;;;;;;5051235;28;46438;-65
2023/04/19 00:26:43;;;;;;;17.70;12.87;;;9.10;70.80;;;;;;5053895;28;46372;-65
2023/04/19 00:29:09;;;;;;;19.93;12.90;;;9.10;71.00;;;;;;5049249;28;46258;-65
2023/04/19 00:31:35;;;;;;;21.47;13.03;;;9.00;71.10;;;;;;5054543;28;46496;-65
2023/04/19 00:34:01;;;;;;;21.00;13.60;;;9.00;71.10;;;;;;5048325;28;46290;-65
2023/04/19 00:36:27;;;;;;;18.40;12.57;;;9.10;70.70;;;;;;5053202;28;47605;-65
2023/04/19 00:38:53;;;;;;;17.60;13.10;;;9.10;70.70;;;;;;5047056;28;46232;-64
2023/04/19 00:41:18;;;;;;;17.23;11.83;;;9.00;70.90;;;;;;5054961;28;46361;-64
2023/04/19 00:43:44;;;;;;;21.20;12.10;;;9.00;71.10;;;;;;5050423;28;46463;-64
2023/04/19 00:46:10;;;;;;;20.53;12.67;;;8.90;71.60;;;;;;5048387;28;47901;-64
2023/04/19 00:48:36;;;;;;;19.20;12.87;;;8.90;71.50;;;;;;5056559;28;46416;-64
2023/04/19 00:51:02;;;;;;;20.47;12.80;;;8.80;71.60;;;;;;5051743;28;45795;-64
2023/04/19 00:53:29;;;;;;;19.13;13.60;;;8.80;72.00;;;;;;5050630;28;45902;-63
2023/04/19 00:55:58;;;;;;;19.07;12.13;;;8.70;72.30;;;;;;5050968;28;46487;-65
2023/04/19 00:58:24;;;;;;;18.27;12.57;;;8.50;72.70;;;;;;5048452;28;46271;-64
2023/04/19 01:00:50;;;;;;;19.73;12.90;;;8.50;73.00;;;;;;5047966;28;46364;-64
2023/04/19 01:03:16;;;;;;;17.83;12.27;;;8.50;73.00;;;;;;5049431;28;46365;-64
2023/04/19 01:05:41;;;;;;;20.17;13.27;;;8.60;72.70;;;;;;5045792;28;48430;-64
2023/04/19 01:08:07;;;;;;;19.40;12.47;;;8.70;72.20;;;;;;5051104;28;45759;-64
2023/04/19 01:10:33;;;;;;;20.87;13.30;;;8.70;71.80;;;;;;5050071;28;45740;-64
2023/04/19 01:12:59;;;;;;;19.10;13.10;;;8.70;71.80;;;;;;5049054;28;46478;-64
2023/04/19 01:15:25;;;;;;;15.40;11.00;;;8.70;72.00;;;;;;5046808;28;46359;-65
2023/04/19 01:17:50;;;;;;;22.73;13.67;;;8.70;71.70;;;;;;5049296;28;46524;-64
2023/04/19 01:20:16;;;;;;;22.40;14.43;;;8.70;71.80;;;;;;5050803;28;45925;-64
2023/04/19 01:22:41;;;;;;;22.30;15.07;;;8.70;71.70;;;;;;5050112;28;46682;-64
2023/04/19 01:25:07;;;;;;;21.87;12.80;;;8.80;71.70;;;;;;5050701;28;47241;-64
2023/04/19 01:27:33;;;;;;;18.77;13.00;;;8.80;71.60;;;;;;5049980;28;46279;-64
2023/04/19 01:29:59;;;;;;;18.53;12.33;;;8.80;71.40;;;;;;5050313;28;46274;-64
2023/04/19 01:32:27;;;;;;;20.63;13.60;;;8.80;71.20;;;;;;5052271;28;46350;-64
2023/04/19 01:34:52;;;;;;;23.97;15.07;;;8.90;71.00;;;;;;5052962;28;46367;-64
2023/04/19 01:37:18;;;;;;;23.20;14.70;;;8.90;72.10;;;;;;5048281;28;45783;-64
2023/04/19 01:39:44;;;;;;;25.07;14.70;;;8.90;70.90;;;;;;5048296;28;46663;-64
2023/04/19 01:42:09;;;;;;;20.37;14.30;;;8.90;71.00;;;;;;5048159;28;46540;-64
2023/04/19 01:44:35;;;;;;;21.17;13.97;;;8.90;71.10;;;;;;5050195;28;46345;-64
2023/04/19 01:47:01;;;;;;;20.80;14.13;;;8.90;71.20;;;;;;5048311;28;46577;-64
2023/04/19 01:49:26;;;;;;;27.43;14.63;;;8.90;71.10;;;;;;5052262;28;46453;-65
2023/04/19 01:51:52;;;;;;;24.10;14.30;;;9.00;71.00;;;;;;5048927;28;46600;-64
2023/04/19 01:54:17;;;;;;;22.70;15.50;;;9.00;70.90;;;;;;5048502;28;46848;-64
2023/04/19 01:56:43;;;;;;;24.43;15.80;;;9.00;71.00;;;;;;5050959;28;46762;-64
2023/04/19 01:59:09;;;;;;;23.23;15.80;;;9.00;71.00;;;;;;5047187;28;45873;-64
2023/04/19 02:01:34;;;;;;;21.87;14.93;;;8.90;71.10;;;;;;5052642;28;46840;-64
2023/04/19 02:04:01;;;;;;;22.40;15.60;;;8.90;71.10;;;;;;5048620;28;45914;-64
2023/04/19 02:06:27;;;;;;;23.20;15.17;;;8.90;71.10;;;;;;5050067;28;46388;-64
2023/04/19 02:08:52;;;;;;;23.67;14.90;;;8.90;71.10;;;;;;5049488;28;46280;-65
2023/04/19 02:11:18;;;;;;;22.47;14.70;;;8.90;71.20;;;;;;5051716;28;46286;-64
2023/04/19 02:13:43;;;;;;;22.10;15.30;;;9.00;71.10;;;;;;5045869;28;46372;-64
2023/04/19 02:16:10;;;;;;;20.60;14.13;;;9.00;71.10;;;;;;5052067;28;46366;-65
2023/04/19 02:18:37;;;;;;;22.40;13.80;;;9.00;71.10;;;;;;5050044;28;45828;-64
2023/04/19 02:21:03;;;;;;;26.30;14.67;;;9.00;71.10;;;;;;5046702;28;46342;-64
2023/04/19 02:23:29;;;;;;;21.60;13.90;;;9.00;70.90;;;;;;5048352;28;47116;-64
2023/04/19 02:25:55;;;;;;;26.67;15.87;;;9.10;70.80;;;;;;5050931;28;45882;-64
2023/04/19 02:28:20;;;;;;;25.87;16.00;;;9.10;70.70;;;;;;5049321;28;46447;-64
2023/04/19 02:30:46;;;;;;;23.77;15.27;;;9.00;70.90;;;;;;5050024;28;46314;-64
2023/04/19 02:33:12;;;;;;;22.93;14.87;;;9.00;71.00;;;;;;5049562;28;46461;-64
2023/04/19 02:35:37;;;;;;;23.20;15.70;;;9.00;71.10;;;;;;5050339;28;46411;-64
2023/04/19 02:38:03;;;;;;;25.63;16.93;;;9.00;71.10;;;;;;5050460;28;46290;-63
2023/04/19 02:40:29;;;;;;;26.03;15.70;;;9.00;71.10;;;;;;5049380;28;46307;-65
2023/04/19 02:42:55;;;;;;;23.57;15.77;;;9.00;71.20;;;;;;5049296;28;47273;-64
2023/04/19 02:45:21;;;;;;;28.67;17.97;;;9.00;71.10;;;;;;5048298;28;46460;-65
2023/04/19 02:47:47;;;;;;;26.60;16.20;;;9.00;71.20;;;;;;5051370;28;46440;-64
2023/04/19 02:50:15;;;;;;;24.80;15.83;;;9.00;71.20;;;;;;5046856;28;46509;-65
2023/04/19 02:52:41;;;;;;;22.27;16.10;;;8.90;71.30;;;;;;5048914;28;45967;-65
2023/04/19 02:55:07;;;;;;;30.20;16.33;;;9.00;71.50;;;;;;5046430;28;46452;-65
2023/04/19 02:57:32;;;;;;;26.80;16.87;;;8.90;71.50;;;;;;5047859;28;46279;-65
2023/04/19 02:59:58;;;;;;;23.90;17.00;;;8.90;72.70;;;;;;5048601;28;46359;-64
2023/04/19 03:02:24;;;;;;;30.63;20.93;;;8.90;71.50;;;;;;5047057;28;46314;-64
2023/04/19 03:04:51;;;;;;;30.77;20.40;;;8.90;71.70;;;;;;5047550;28;46465;-64
2023/04/19 03:07:17;;;;;;;28.37;19.07;;;8.90;71.80;;;;;;5046525;28;46418;-64
2023/04/19 03:09:43;;;;;;;29.90;19.60;;;8.90;71.80;;;;;;5047063;28;47348;-64
2023/04/19 03:12:09;;;;;;;31.00;20.17;;;8.80;71.90;;;;;;5046235;28;46480;-64
2023/04/19 03:14:34;;;;;;;33.40;19.50;;;8.80;72.20;;;;;;5050728;28;46536;-64
2023/04/19 03:17:00;;;;;;;35.07;21.53;;;8.70;72.30;;;;;;5045215;28;46322;-64
2023/04/19 03:19:26;;;;;;;32.70;19.63;;;8.70;72.60;;;;;;5045310;28;46401;-64
2023/04/19 03:21:51;;;;;;;33.17;21.17;;;8.70;72.40;;;;;;5046422;28;46501;-64
2023/04/19 03:24:19;;;;;;;40.13;25.30;;;8.80;72.20;;;;;;5048448;28;46421;-64
2023/04/19 03:26:44;;;;;;;30.17;20.30;;;8.90;71.90;;;;;;5046291;28;46471;-64
2023/04/19 03:29:10;;;;;;;37.80;20.80;;;8.90;71.70;;;;;;5047068;28;46417;-64
2023/04/19 03:31:36;;;;;;;34.50;22.93;;;8.90;71.80;;;;;;5048151;28;46373;-64
2023/04/19 03:34:01;;;;;;;35.80;24.10;;;8.90;71.60;;;;;;5048351;28;46405;-64
2023/04/19 03:36:27;;;;;;;41.67;22.47;;;8.90;71.70;;;;;;5048541;28;46282;-65
2023/04/19 03:38:53;;;;;;;33.47;20.57;;;8.90;72.90;;;;;;5049361;28;46527;-66
2023/04/19 03:41:25;;;;;;;36.77;22.53;;;8.90;71.80;;;;;;5049521;28;46963;-65
2023/04/19 03:43:51;;;;;;;36.93;23.07;;;8.80;72.10;;;;;;5047163;28;46353;-65
2023/04/19 03:46:17;;;;;;;37.27;23.23;;;8.80;72.40;;;;;;5046123;28;46448;-65
2023/04/19 03:48:43;;;;;;;40.20;25.50;;;8.70;72.60;;;;;;5052128;28;46389;-64
2023/04/19 03:51:08;;;;;;;36.20;23.50;;;8.80;72.70;;;;;;5047304;28;46747;-64
2023/04/19 03:53:35;;;;;;;36.20;22.40;;;8.90;72.20;;;;;;5045694;28;45764;-64
2023/04/19 03:56:00;;;;;;;34.67;20.83;;;8.90;72.10;;;;;;5046845;28;46285;-65
2023/04/19 03:58:26;;;;;;;32.67;20.53;;;8.90;72.10;;;;;;5048671;28;46580;-65
2023/04/19 04:00:52;;;;;;;34.73;21.07;;;8.80;72.50;;;;;;5045703;28;47916;-65
2023/04/19 04:03:18;;;;;;;32.40;22.37;;;8.80;72.60;;;;;;5051147;28;45776;-65
2023/04/19 04:05:43;;;;;;;34.17;21.00;;;8.80;72.70;;;;;;5048177;28;46425;-65
2023/04/19 04:08:09;;;;;;;34.20;21.87;;;8.80;72.50;;;;;;5047081;28;45773;-65
2023/04/19 04:10:35;;;;;;;35.27;21.80;;;8.90;72.50;;;;;;5053158;28;46697;-66
2023/04/19 04:13:00;;;;;;;34.60;21.27;;;8.90;72.40;;;;;;5047528;28;46358;-64
2023/04/19 04:15:26;;;;;;;36.57;21.90;;;8.90;72.40;;;;;;5045046;28;45935;-64
2023/04/19 04:17:52;;;;;;;36.37;23.27;;;8.80;72.50;;;;;;5050968;28;46651;-64
2023/04/19 04:20:17;;;;;;;36.17;23.37;;;8.70;72.90;;;;;;5045186;28;47267;-65
2023/04/19 04:22:45;;;;;;;38.03;23.60;;;8.70;72.90;;;;;;5049828;28;46420;-65
2023/04/19 04:25:11;;;;;;;36.30;23.20;;;8.70;73.20;;;;;;5047003;28;45800;-64
2023/04/19 04:27:38;;;;;;;39.80;25.17;;;8.70;73.30;;;;;;5048474;28;46330;-65
2023/04/19 04:30:05;;;;;;;44.07;23.47;;;8.80;72.90;;;;;;5048269;28;47051;-66
2023/04/19 04:32:34;;;;;;;35.80;22.50;;;8.90;72.70;;;;;;5050978;28;46475;-66
2023/04/19 04:35:03;;;;;;;37.57;22.77;;;8.90;72.50;;;;;;5046983;28;46628;-65
2023/04/19 04:37:32;;;;;;;32.50;21.70;;;8.80;72.70;;;;;;5046461;28;46525;-66
2023/04/19 04:40:00;;;;;;;39.90;22.47;;;8.80;72.80;;;;;;5045666;28;48036;-66
2023/04/19 04:42:26;;;;;;;34.90;21.27;;;8.90;72.70;;;;;;5047606;28;46389;-66
2023/04/19 04:44:52;;;;;;;36.57;21.37;;;8.90;72.60;;;;;;5046794;28;46382;-66
2023/04/19 04:47:18;;;;;;;41.70;22.90;;;8.90;72.70;;;;;;5052203;28;45838;-67
2023/04/19 04:49:43;;;;;;;33.67;21.13;;;8.90;72.60;;;;;;5048687;28;46401;-66
2023/04/19 04:52:09;;;;;;;34.37;21.37;;;8.90;72.50;;;;;;5048535;28;45770;-65
2023/04/19 04:54:35;;;;;;;42.70;21.50;;;9.00;72.40;;;;;;5049963;28;46354;-66
2023/04/19 04:57:01;;;;;;;34.33;21.50;;;9.00;72.20;;;;;;5048602;28;46585;-66
2023/04/19 04:59:27;;;;;;;43.30;22.33;;;8.90;72.40;;;;;;5054048;28;46678;-66
2023/04/19 05:01:52;;;;;;;34.63;21.80;;;8.80;72.80;;;;;;5055455;28;46514;-66
2023/04/19 05:04:18;;;;;;;35.33;22.47;;;8.80;73.20;;;;;;5051464;28;46432;-66
2023/04/19 05:06:44;;;;;;;42.60;24.53;;;8.80;73.00;;;;;;5048742;28;46510;-66
2023/04/19 05:09:10;;;;;;;41.00;23.47;;;8.90;72.70;;;;;;5046189;28;47154;-66
2023/04/19 05:11:35;;;;;;;36.43;22.40;;;8.80;72.80;;;;;;5051736;28;46369;-66
2023/04/19 05:14:02;;;;;;;37.23;23.33;;;8.80;73.10;;;;;;5048166;28;46295;-66
2023/04/19 05:16:28;;;;;;;38.17;22.13;;;8.90;73.30;;;;;;5050514;28;46543;-66
2023/04/19 05:18:54;;;;;;;43.27;23.60;;;8.90;72.90;;;;;;5052125;28;46492;-66
2023/04/19 05:21:20;;;;;;;32.83;22.20;;;9.00;72.70;;;;;;5054654;28;46376;-67
2023/04/19 05:23:46;;;;;;;40.70;23.37;;;9.00;72.40;;;;;;5047905;28;46440;-65
2023/04/19 05:26:14;;;;;;;46.87;25.00;;;9.00;72.80;;;;;;5051406;28;46314;-66
2023/04/19 05:28:40;;;;;;;34.90;21.27;;;9.00;73.00;;;;;;5052884;28;46492;-65
2023/04/19 05:31:07;;;;;;;39.77;25.23;;;9.00;73.00;;;;;;5045552;28;46437;-66
2023/04/19 05:33:33;;;;;;;35.30;22.70;;;9.00;72.90;;;;;;5047975;28;46372;-66
2023/04/19 05:35:58;;;;;;;37.63;23.27;;;9.10;72.70;;;;;;5048652;28;46372;-65
2023/04/19 05:38:24;;;;;;;38.73;23.50;;;9.10;72.50;;;;;;5053022;28;46718;-68
2023/04/19 05:40:50;;;;;;;37.57;22.60;;;9.20;72.60;;;;;;5049981;28;46430;-66
2023/04/19 05:43:15;;;;;;;39.07;20.63;;;9.20;72.40;;;;;;5050271;28;46345;-66
2023/04/19 05:45:41;;;;;;;38.27;22.13;;;9.10;72.50;;;;;;5050867;28;46620;-65
2023/04/19 05:48:07;;;;;;;35.97;21.10;;;9.10;72.90;;;;;;5051879;28;46831;-66
2023/04/19 05:50:35;;;;;;;42.47;24.30;;;9.00;72.90;;;;;;5049191;28;46570;-66
2023/04/19 05:53:00;;;;;;;38.90;23.20;;;9.00;72.90;;;;;;5048424;28;46397;-67
2023/04/19 05:55:26;;;;;;;36.87;21.20;;;9.10;72.80;;;;;;5048555;28;46421;-66
2023/04/19 05:57:52;;;;;;;38.50;21.50;;;9.10;72.70;;;;;;5047136;28;46931;-66
2023/04/19 06:00:17;;;;;;;37.63;22.33;;;9.10;72.70;;;;;;5047124;28;46227;-66
2023/04/19 06:02:43;;;;;;;40.47;22.80;;;9.00;72.90;;;;;;5048933;28;46379;-66
2023/04/19 06:05:09;;;;;;;35.97;19.63;;;9.00;73.10;;;;;;5048579;28;46356;-66
2023/04/19 06:07:35;;;;;;;39.10;22.77;;;9.00;73.00;;;;;;5054841;28;46249;-65
2023/04/19 06:10:00;;;;;;;34.30;20.40;;;9.00;72.80;;;;;;5051496;28;46565;-65
2023/04/19 06:12:26;;;;;;;32.90;21.23;;;9.10;72.90;;;;;;5049958;28;46477;-66
2023/04/19 06:14:52;;;;;;;39.67;22.17;;;9.10;72.70;;;;;;5050323;28;46556;-67
2023/04/19 06:17:23;;;;;;;37.57;21.30;;;9.10;72.50;;;;;;5053217;28;46419;-66
2023/04/19 06:19:49;;;;;;;37.27;21.17;;;9.10;72.50;;;;;;5046036;28;46336;-66
2023/04/19 06:22:15;;;;;;;38.87;22.47;;;9.00;72.90;;;;;;5049714;28;46396;-66
2023/04/19 06:24:40;;;;;;;35.87;20.63;;;8.90;72.90;;;;;;5051746;28;46534;-66
2023/04/19 06:27:06;;;;;;;37.50;21.97;;;9.00;73.00;;;;;;5050128;28;46521;-65
2023/04/19 06:29:31;;;;;;;34.60;20.50;;;9.00;72.70;;;;;;5049165;28;46441;-65
2023/04/19 06:31:57;;;;;;;44.40;22.33;;;9.00;72.60;;;;;;5048466;28;46590;-66
2023/04/19 06:34:22;;;;;;;38.20;21.13;;;9.10;72.50;;;;;;5050214;28;46632;-65
2023/04/19 06:36:48;;;;;;;40.00;23.30;;;9.20;72.30;;;;;;5047045;28;46416;-66
2023/04/19 06:39:14;;;;;;;34.37;20.63;;;9.10;72.20;;;;;;5049005;28;45857;-66
2023/04/19 06:41:39;;;;;;;35.67;20.80;;;9.10;72.20;;;;;;5050732;28;46094;-66
2023/04/19 06:44:05;;;;;;;36.43;20.50;;;9.10;72.30;;;;;;5047735;28;45830;-66
2023/04/19 06:46:31;;;;;;;38.97;21.17;;;9.20;72.10;;;;;;5050786;28;46299;-66
2023/04/19 06:48:56;;;;;;;36.80;20.70;;;9.20;72.00;;;;;;5049389;28;46429;-66
2023/04/19 06:51:22;;;;;;;39.07;21.63;;;9.20;71.90;;;;;;5051792;28;46568;-67
2023/04/19 06:53:49;;;;;;;38.73;20.10;;;9.20;71.70;;;;;;5048082;28;46484;-66
2023/04/19 06:56:15;;;;;;;32.53;18.67;;;9.40;71.60;;;;;;5046080;28;46394;-68
2023/04/19 06:58:41;;;;;;;34.07;20.33;;;9.40;71.30;;;;;;5047167;28;46427;-67
2023/04/19 07:01:06;;;;;;;36.13;19.80;;;9.40;71.30;;;;;;5049040;28;46489;-66
2023/04/19 07:03:33;;;;;;;35.77;19.03;;;9.50;70.80;;;;;;5048275;28;46449;-67
2023/04/19 07:05:59;;;;;;;35.90;20.53;;;9.50;70.70;;;;;;5049439;28;47039;-67
2023/04/19 07:08:25;;;;;;;34.07;19.57;;;9.40;70.60;;;;;;5048533;28;45901;-66
2023/04/19 07:10:51;;;;;;;31.10;18.87;;;9.40;70.80;;;;;;5047788;28;46412;-67
2023/04/19 07:13:17;;;;;;;41.63;19.87;;;9.50;70.80;;;;;;5047449;28;46476;-66
2023/04/19 07:15:43;;;;;;;40.10;20.20;;;9.50;70.50;;;;;;5046520;28;46238;-66
2023/04/19 07:18:10;;;;;;;32.27;18.90;;;9.50;70.40;;;;;;5044235;28;46399;-66
2023/04/19 07:20:35;;;;;;;31.87;18.17;;;9.50;70.40;;;;;;5046761;28;46701;-67
2023/04/19 07:23:01;;;;;;;30.93;17.37;;;9.50;70.40;;;;;;5048556;28;45984;-67
2023/04/19 07:25:26;;;;;;;30.47;18.13;;;9.50;70.00;;;;;;5044435;28;47320;-66
2023/04/19 07:27:53;;;;;;;32.27;18.57;;;9.40;70.00;;;;;;5049332;28;45812;-66
2023/04/19 07:30:19;;;;;;;34.50;18.70;;;9.40;70.10;;;;;;5044933;28;46441;-67
2023/04/19 07:32:45;;;;;;;31.40;18.20;;;9.40;70.20;;;;;;5049548;28;46599;-66
2023/04/19 07:35:11;;;;;;;35.97;19.00;;;9.50;70.10;;;;;;5048431;28;46886;-67
2023/04/19 07:37:36;;;;;;;29.53;19.57;;;9.60;69.50;;;;;;5047846;28;46306;-66
2023/04/19 07:40:02;;;;;;;33.50;18.80;;;9.70;69.30;;;;;;5047889;28;46422;-66
2023/04/19 07:42:29;;;;;;;29.60;18.33;;;9.80;68.90;;;;;;5046190;28;45961;-67
2023/04/19 07:44:55;;;;;;;36.80;20.13;;;9.80;68.80;;;;;;5046580;28;47072;-66
2023/04/19 07:47:21;;;;;;;37.47;18.17;;;9.80;68.80;;;;;;5049772;28;46587;-67
2023/04/19 07:49:50;;;;;;;30.10;18.27;;;9.90;68.40;;;;;;5051356;28;45818;-67
2023/04/19 07:52:17;;;;;;;33.00;17.93;;;9.90;68.30;;;;;;5045530;28;46565;-67
2023/04/19 07:54:42;;;;;;;30.93;17.50;;;10.00;67.00;;;;;;5046891;28;47318;-67
2023/04/19 07:57:08;;;;;;;28.40;17.40;;;10.20;66.50;;;;;;5049067;28;46389;-67
2023/04/19 07:59:34;;;;;;;30.10;17.20;;;10.20;65.80;;;;;;5048912;28;45822;-66
2023/04/19 08:01:59;;;;;;;30.70;17.37;;;10.20;65.90;;;;;;5048669;28;46294;-67
2023/04/19 08:04:25;;;;;;;27.60;17.30;;;10.20;65.60;;;;;;5049881;28;46392;-67
2023/04/19 08:06:51;;;;;;;28.90;16.97;;;10.20;65.60;;;;;;5048927;28;46423;-66
2023/04/19 08:09:17;;;;;;;31.00;16.97;;;10.30;65.60;;;;;;5048217;28;46474;-66
2023/04/19 08:11:43;;;;;;;30.17;17.60;;;10.30;65.20;;;;;;5048417;28;46420;-67
2023/04/19 08:14:09;;;;;;;31.33;20.00;;;10.20;64.70;;;;;;5047896;28;46864;-66
2023/04/19 08:16:34;;;;;;;30.27;18.30;;;10.30;64.70;;;;;;5049275;28;46432;-67
2023/04/19 08:19:00;;;;;;;32.20;19.90;;;10.40;64.80;;;;;;5050701;28;46444;-66
2023/04/19 08:21:25;;;;;;;31.23;19.53;;;10.70;64.10;;;;;;5047800;28;46449;-66
2023/04/19 08:23:51;;;;;;;31.43;18.90;;;11.10;63.00;;;;;;5051736;28;46001;-67
2023/04/19 08:26:17;;;;;;;31.57;19.73;;;11.00;62.30;;;;;;5045689;28;46368;-68
2023/04/19 08:28:42;;;;;;;35.83;19.50;;;11.00;62.20;;;;;;5048708;28;46311;-67
2023/04/19 08:31:09;;;;;;;30.87;19.00;;;11.10;62.10;;;;;;5051077;28;46441;-67
2023/04/19 08:33:34;;;;;;;29.93;19.13;;;11.20;61.00;;;;;;5049594;28;47021;-67
2023/04/19 08:36:00;;;;;;;31.80;20.73;;;11.20;61.50;;;;;;5047340;28;46388;-66
2023/04/19 08:38:26;;;;;;;35.93;20.73;;;11.20;61.70;;;;;;5053227;28;46489;-66
2023/04/19 08:40:54;;;;;;;30.10;19.03;;;11.20;62.00;;;;;;5051559;28;46400;-67
2023/04/19 08:43:20;;;;;;;28.03;17.93;;;11.30;62.60;;;;;;5050410;28;46421;-66
2023/04/19 08:45:48;;;;;;;31.63;20.23;;;11.50;60.60;;;;;;5050369;28;46330;-67
2023/04/19 08:48:15;;;;;;;30.40;19.30;;;11.60;60.10;;;;;;5049949;28;46417;-67
2023/04/19 08:50:41;;;;;;;28.47;18.87;;;11.60;60.00;;;;;;5050482;28;46971;-67
2023/04/19 08:53:08;;;;;;;30.07;18.90;;;11.50;60.00;;;;;;5049441;28;46107;-66
2023/04/19 08:55:35;;;;;;;35.20;17.70;;;11.60;59.60;;;;;;5049446;28;46437;-64
2023/04/19 08:58:03;;;;;;;29.83;18.63;;;11.50;59.20;;;;;;5051508;28;46430;-67
2023/04/19 09:00:29;;;;;;;26.63;17.50;;;11.70;59.40;;;;;;5049590;28;46410;-66
2023/04/19 09:02:55;;;;;;;36.20;18.27;;;11.90;59.00;;;;;;5049810;28;46381;-66
2023/04/19 09:05:21;;;;;;;27.97;18.47;;;12.00;58.50;;;;;;5050570;28;46783;-66
2023/04/19 09:07:47;;;;;;;28.00;18.23;;;12.20;57.90;;;;;;5053135;28;46559;-67
2023/04/19 09:10:15;;;;;;;29.17;17.80;;;12.40;56.50;;;;;;5049742;28;46437;-66
2023/04/19 09:12:42;;;;;;;29.50;17.73;;;12.20;56.60;;;;;;5049696;28;48313;-66
2023/04/19 09:15:09;;;;;;;26.23;16.07;;;12.30;57.00;;;;;;5047211;28;46333;-66
2023/04/19 09:17:35;;;;;;;31.87;18.70;;;12.40;56.50;;;;;;5049734;28;46372;-67
2023/04/19 09:20:03;;;;;;;30.43;16.83;;;12.60;56.20;;;;;;5051134;28;46602;-67
2023/04/19 09:22:29;;;;;;;27.43;16.47;;;12.90;54.90;;;;;;5048546;28;46600;-66
2023/04/19 09:24:55;;;;;;;25.20;16.50;;;12.80;54.20;;;;;;5050731;28;46362;-67
2023/04/19 09:27:34;;;;;;;24.13;15.10;;;13.00;54.40;;;;;;5050139;28;46442;-66
2023/04/19 09:30:01;;;;;;;24.40;14.93;;;13.50;53.40;;;;;;5045761;28;46209;-66
2023/04/19 09:32:28;;;;;;;29.33;14.80;;;13.80;52.30;;;;;;5046915;28;46080;-66
2023/04/19 09:34:55;;;;;;;27.60;15.93;;;14.20;51.10;;;;;;5053275;28;46456;-66
2023/04/19 09:37:21;;;;;;;27.27;15.50;;;14.50;50.20;;;;;;5051384;28;46386;-65
2023/04/19 09:39:47;;;;;;;24.10;14.50;;;14.30;49.10;;;;;;5048936;28;46467;-66
2023/04/19 09:42:13;;;;;;;27.30;15.73;;;14.20;50.10;;;;;;5048436;28;46858;-66
2023/04/19 09:44:39;;;;;;;22.10;15.40;;;14.10;50.30;;;;;;5054215;28;45756;-66
2023/04/19 09:47:25;;;;;;;24.90;15.10;;;14.20;50.10;;;;;;5056926;28;46354;-67
2023/04/19 09:50:10;;;;;;;26.20;15.27;;;14.10;49.40;;;;;;5055936;28;46393;-66
2023/04/19 09:52:36;;;;;;;29.73;16.20;;;13.90;49.00;;;;;;5055965;28;46614;-65
2023/04/19 09:55:07;;;;;;;27.47;15.27;;;14.00;49.40;;;;;;5050093;28;46398;-67
2023/04/19 09:57:33;;;;;;;31.53;17.27;;;14.30;48.70;;;;;;5054155;28;46469;-66
2023/04/19 10:00:01;;;;;;;28.50;15.20;;;14.50;47.50;;;;;;5051073;28;46580;-67
2023/04/19 10:02:33;;;;;;;29.80;18.87;;;14.50;47.30;;;;;;5051089;28;46571;-65
2023/04/19 10:04:59;;;;;;;23.60;15.27;;;14.20;46.60;;;;;;5049474;28;46321;-66
2023/04/19 10:07:25;;;;;;;35.90;21.80;;;14.30;47.20;;;;;;5049609;28;46444;-66
2023/04/19 10:09:54;;;;;;;30.50;17.87;;;14.00;47.00;;;;;;5050931;28;46491;-65
2023/04/19 10:12:25;;;;;;;34.50;21.20;;;14.00;47.10;;;;;;5051658;28;46700;-66
2023/04/19 10:14:57;;;;;;;69.20;37.40;;;13.80;47.70;;;;;;5055601;28;46318;-66
2023/04/19 10:17:23;;;;;;;30.90;15.63;;;13.30;47.10;;;;;;5052619;28;46315;-65
2023/04/19 10:19:58;;;;;;;23.20;14.33;;;13.20;47.80;;;;;;5047209;28;46023;-65
2023/04/19 10:22:24;;;;;;;33.90;22.17;;;13.30;47.40;;;;;;5055979;28;48051;-65
2023/04/19 10:25:10;;;;;;;24.70;14.43;;;13.20;47.70;;;;;;5051391;28;46278;-66
2023/04/19 10:27:36;;;;;;;22.87;14.97;;;13.30;47.10;;;;;;5060036;28;46548;-66
2023/04/19 10:30:06;;;;;;;25.97;16.00;;;13.50;47.10;;;;;;5049473;28;46415;-66
2023/04/19 10:32:43;;;;;;;24.97;16.07;;;13.50;46.50;;;;;;5048348;28;47264;-66
2023/04/19 10:35:16;;;;;;;23.20;15.20;;;13.70;46.00;;;;;;5047453;28;46376;-65
2023/04/19 10:38:04;;;;;;;23.17;13.60;;;13.50;45.60;;;;;;5051815;28;46380;-66
2023/04/19 10:41:00;;;;;;;27.50;14.97;;;13.70;45.70;;;;;;5042219;28;46284;-66
2023/04/19 10:43:33;;;;;;;24.63;16.20;;;13.70;45.20;;;;;;5047185;28;46708;-65
2023/04/19 10:46:01;;;;;;;20.60;14.10;;;13.90;45.70;;;;;;5049383;28;46376;-65
2023/04/19 10:48:29;;;;;;;23.30;14.53;;;14.10;44.90;;;;;;5049216;28;46371;-66
2023/04/19 10:51:00;;;;;;;24.97;14.60;;;14.10;44.80;;;;;;5048848;28;46646;-66
2023/04/19 10:53:45;;;;;;;21.97;14.60;;;14.40;44.20;;;;;;5049031;28;48881;-64
2023/04/19 10:56:11;;;;;;;24.20;14.13;;;14.70;42.70;;;;;;5050477;28;46339;-66
2023/04/19 10:58:59;;;;;;;24.33;14.63;;;14.20;42.20;;;;;;5052027;28;46480;-66
2023/04/19 11:01:38;;;;;;;24.93;14.20;;;14.10;42.90;;;;;;5047146;28;46429;-66
2023/04/19 11:04:04;;;;;;;22.50;12.90;;;14.20;43.30;;;;;;5048066;28;46387;-66
2023/04/19 11:06:33;;;;;;;20.80;13.00;;;14.30;43.40;;;;;;5046923;28;46444;-67
2023/04/19 11:08:59;;;;;;;19.17;12.30;;;14.40;42.40;;;;;;5047584;28;46411;-67
2023/04/19 11:11:25;;;;;;;21.23;13.27;;;14.20;41.10;;;;;;5047568;28;46304;-66
2023/04/19 11:13:54;;;;;;;18.93;12.30;;;14.00;42.10;;;;;;5047673;28;46581;-67
2023/04/19 11:16:20;;;;;;;19.83;13.57;;;14.10;41.60;;;;;;5049323;28;46411;-67
2023/04/19 11:18:45;;;;;;;22.90;12.70;;;14.20;42.10;;;;;;5048534;28;46301;-66
2023/04/19 11:21:16;;;;;;;18.67;11.80;;;14.50;41.60;;;;;;5048271;28;46726;-66
2023/04/19 11:23:42;;;;;;;22.03;11.80;;;14.50;39.40;;;;;;5046842;28;46057;-66
2023/04/19 11:26:11;;;;;;;21.27;12.30;;;14.40;39.60;;;;;;5051031;28;46429;-67
2023/04/19 11:28:37;;;;;;;19.07;11.70;;;14.50;40.00;;;;;;5048472;28;46410;-66
2023/04/19 11:31:04;;;;;;;20.57;11.63;;;14.60;40.30;;;;;;5052307;28;46420;-66
2023/04/19 11:33:36;;;;;;;20.93;11.13;;;14.60;40.10;;;;;;5045089;28;46274;-67
2023/04/19 11:36:02;;;;;;;20.97;10.37;;;14.30;40.20;;;;;;5046990;28;45767;-67
2023/04/19 11:38:29;;;;;;;21.90;12.73;;;14.00;40.30;;;;;;5050272;28;46544;-66
2023/04/19 11:41:00;;;;;;;25.13;11.90;;;13.70;40.20;;;;;;5049963;28;46400;-65
2023/04/19 11:43:35;;;;;;;23.83;11.53;;;13.70;41.00;;;;;;5051734;28;46619;-65
2023/04/19 11:46:11;;;;;;;22.33;12.57;;;13.60;41.10;;;;;;5051911;28;46513;-66
2023/04/19 11:48:37;;;;;;;20.47;11.10;;;13.60;42.70;;;;;;5047385;28;46480;-66
2023/04/19 11:51:03;;;;;;;19.33;13.37;;;13.50;41.60;;;;;;5049942;28;46511;-66
2023/04/19 11:53:32;;;;;;;18.30;12.77;;;13.30;41.40;;;;;;5049445;28;46483;-66
2023/04/19 11:56:05;;;;;;;23.40;12.40;;;13.00;41.10;;;;;;5048917;28;46420;-66
2023/04/19 11:58:42;;;;;;;16.27;10.27;;;12.80;42.00;;;;;;5048500;28;46838;-65
2023/04/19 12:01:21;;;;;;;25.87;13.57;;;12.30;43.10;;;;;;5048351;28;46708;-65
2023/04/19 12:03:50;;;;;;;18.93;12.83;;;11.90;44.80;;;;;;5045708;28;46457;-66
2023/04/19 12:06:17;;;;;;;25.23;14.23;;;11.70;46.10;;;;;;5049658;28;46613;-67
2023/04/19 12:08:48;;;;;;;19.50;13.03;;;11.60;46.60;;;;;;5045608;28;46534;-67
2023/04/19 12:11:16;;;;;;;27.23;14.43;;;11.40;48.30;;;;;;5044738;28;46498;-67
2023/04/19 12:13:43;;;;;;;22.10;14.97;;;11.30;48.80;;;;;;5048846;28;46887;-66
2023/04/19 12:16:09;;;;;;;24.43;15.03;;;11.20;49.30;;;;;;5050947;28;46377;-67
2023/04/19 12:18:49;;;;;;;24.50;14.97;;;11.20;49.40;;;;;;5047468;28;46290;-66
2023/04/19 12:21:29;;;;;;;28.50;15.30;;;11.20;50.60;;;;;;5045969;28;46393;-67
2023/04/19 12:24:00;;;;;;;27.30;16.23;;;11.10;50.80;;;;;;5049155;28;47171;-67
2023/04/19 12:26:27;;;;;;;24.50;15.23;;;11.20;52.10;;;;;;5047329;28;46464;-67
2023/04/19 12:28:57;;;;;;;30.00;16.13;;;11.30;52.20;;;;;;5048084;28;46307;-67
2023/04/19 12:31:23;;;;;;;27.70;16.37;;;11.10;52.70;;;;;;5042834;28;46412;-66
2023/04/19 12:33:49;;;;;;;28.07;16.37;;;11.00;53.10;;;;;;5050552;28;46430;-67